sensor_id;sensor_type;location;lat;lon;timestamp;temperature;humidity
12841;DHT22;6487;48.626;12.486;2023-02-26T00:01:59;0.90;99.90
12841;DHT22;6487;48.626;12.486;2023-02-26T00:04:28;0.90;99.90
12841;DHT22;6487;48.626;12.486;2023-02-26T00:06:56;0.80;99.90
12841;DHT22;6487;48.626;12.486;2023-02-26T00:09:26;0.80;99.90
12841;DHT22;6487;48.626;12.486;2023-02-26T00:11:56;0.90;99.90
12841;DHT22;6487;48.626;12.486;2023-02-26T00:14:26;1.00;99.90
12841;DHT22;6487;48.626;12.486;2023-02-26T00:17:13;0.90;99.90
12841;DHT22;6487;48.626;12.486;2023-02-26T00:19:50;0.80;99.90
12841;DHT22;6487;48.626;12.486;2023-02-26T00:22:20;0.90;99.90
12841;DHT22;6487;48.626;12.486;2023-02-26T00:24:49;0.90;99.90
12841;DHT22;6487;48.626;12.486;2023-02-26T00:27:19;0.90;99.90
12841;DHT22;6487;48.626;12.486;2023-02-26T00:29:48;0.90;99.90
12841;DHT22;6487;48.626;12.486;2023-02-26T00:32:17;0.90;99.90
12841;DHT22;6487;48.626;12.486;2023-02-26T00:34:47;0.90;99.90
12841;DHT22;6487;48.626;12.486;2023-02-26T00:37:26;0.90;99.90
12841;DHT22;6487;48.626;12.486;2023-02-26T00:40:06;0.90;99.90
12841;DHT22;6487;48.626;12.486;2023-02-26T00:42:42;0.90;99.90
12841;DHT22;6487;48.626;12.486;2023-02-26T00:45:12;0.90;99.90
12841;DHT22;6487;48.626;12.486;2023-02-26T00:47:46;0.80;99.90
12841;DHT22;6487;48.626;12.486;2023-02-26T00:50:19;0.80;99.90
12841;DHT22;6487;48.626;12.486;2023-02-26T00:52:56;0.80;99.90
12841;DHT22;6487;48.626;12.486;2023-02-26T00:55:29;0.80;99.90
12841;DHT22;6487;48.626;12.486;2023-02-26T00:57:59;0.80;99.90
12841;DHT22;6487;48.626;12.486;2023-02-26T01:00:27;0.70;99.90
12841;DHT22;6487;48.626;12.486;2023-02-26T01:02:56;0.60;99.90
12841;DHT22;6487;48.626;12.486;2023-02-26T01:05:25;0.60;99.90
12841;DHT22;6487;48.626;12.486;2023-02-26T01:08:00;0.60;99.90
12841;DHT22;6487;48.626;12.486;2023-02-26T01:10:31;0.60;99.90
12841;DHT22;6487;48.626;12.486;2023-02-26T01:13:02;0.60;99.90
12841;DHT22;6487;48.626;12.486;2023-02-26T01:15:31;0.60;99.90
12841;DHT22;6487;48.626;12.486;2023-02-26T01:18:05;0.70;99.90
12841;DHT22;6487;48.626;12.486;2023-02-26T01:20:42;0.60;99.90
12841;DHT22;6487;48.626;12.486;2023-02-26T01:23:15;0.60;99.90
12841;DHT22;6487;48.626;12.486;2023-02-26T01:25:48;0.60;99.90
12841;DHT22;6487;48.626;12.486;2023-02-26T01:28:22;0.50;99.90
12841;DHT22;6487;48.626;12.486;2023-02-26T01:30:54;0.60;99.90
12841;DHT22;6487;48.626;12.486;2023-02-26T01:33:30;0.60;99.90
12841;DHT22;6487;48.626;12.486;2023-02-26T01:36:06;0.60;99.90
12841;DHT22;6487;48.626;12.486;2023-02-26T01:38:39;0.50;99.90
12841;DHT22;6487;48.626;12.486;2023-02-26T01:41:23;0.50;99.90
12841;DHT22;6487;48.626;12.486;2023-02-26T01:44:04;0.40;99.90
12841;DHT22;6487;48.626;12.486;2023-02-26T01:46:45;0.50;99.90
12841;DHT22;6487;48.626;12.486;2023-02-26T01:49:21;0.50;99.90
12841;DHT22;6487;48.626;12.486;2023-02-26T01:51:52;0.50;99.90
12841;DHT22;6487;48.626;12.486;2023-02-26T01:54:23;0.40;99.90
12841;DHT22;6487;48.626;12.486;2023-02-26T01:56:56;0.30;99.90
12841;DHT22;6487;48.626;12.486;2023-02-26T01:59:28;0.20;99.90
12841;DHT22;6487;48.626;12.486;2023-02-26T02:01:57;0.10;99.90
12841;DHT22;6487;48.626;12.486;2023-02-26T02:04:26;0.00;99.90
12841;DHT22;6487;48.626;12.486;2023-02-26T02:06:55;0.00;99.90
12841;DHT22;6487;48.626;12.486;2023-02-26T02:09:23;0.10;99.90
12841;DHT22;6487;48.626;12.486;2023-02-26T02:12:16;0.10;99.90
12841;DHT22;6487;48.626;12.486;2023-02-26T02:15:02;0.10;99.90
12841;DHT22;6487;48.626;12.486;2023-02-26T02:17:40;0.20;99.90
12841;DHT22;6487;48.626;12.486;2023-02-26T02:23:29;0.10;99.90
12841;DHT22;6487;48.626;12.486;2023-02-26T02:26:17;0.00;99.90
12841;DHT22;6487;48.626;12.486;2023-02-26T02:29:21;0.00;99.90
12841;DHT22;6487;48.626;12.486;2023-02-26T02:32:05;-0.10;99.90
12841;DHT22;6487;48.626;12.486;2023-02-26T02:34:39;0.00;99.90
12841;DHT22;6487;48.626;12.486;2023-02-26T02:37:13;0.00;99.90
12841;DHT22;6487;48.626;12.486;2023-02-26T02:39:48;0.00;99.90
12841;DHT22;6487;48.626;12.486;2023-02-26T02:42:23;0.00;99.90
12841;DHT22;6487;48.626;12.486;2023-02-26T02:44:56;-0.20;99.90
12841;DHT22;6487;48.626;12.486;2023-02-26T02:47:29;-0.20;99.90
12841;DHT22;6487;48.626;12.486;2023-02-26T02:50:06;-0.10;99.90
12841;DHT22;6487;48.626;12.486;2023-02-26T02:52:41;-0.30;99.90
12841;DHT22;6487;48.626;12.486;2023-02-26T02:55:15;-0.20;99.90
12841;DHT22;6487;48.626;12.486;2023-02-26T02:57:47;-0.10;99.90
12841;DHT22;6487;48.626;12.486;2023-02-26T03:00:20;-0.10;99.90
12841;DHT22;6487;48.626;12.486;2023-02-26T03:02:56;-0.10;99.90
12841;DHT22;6487;48.626;12.486;2023-02-26T03:05:28;-0.10;99.90
12841;DHT22;6487;48.626;12.486;2023-02-26T03:07:59;-0.10;99.90
12841;DHT22;6487;48.626;12.486;2023-02-26T03:10:31;-0.10;99.90
12841;DHT22;6487;48.626;12.486;2023-02-26T03:12:59;-0.20;99.90
12841;DHT22;6487;48.626;12.486;2023-02-26T03:15:34;-0.20;99.90
12841;DHT22;6487;48.626;12.486;2023-02-26T03:18:15;-0.20;99.90
12841;DHT22;6487;48.626;12.486;2023-02-26T03:20:54;-0.20;99.90
12841;DHT22;6487;48.626;12.486;2023-02-26T03:23:32;-0.20;99.90
12841;DHT22;6487;48.626;12.486;2023-02-26T03:26:08;-0.40;99.90
12841;DHT22;6487;48.626;12.486;2023-02-26T03:28:43;-0.50;99.90
12841;DHT22;6487;48.626;12.486;2023-02-26T03:31:18;-0.50;99.90
12841;DHT22;6487;48.626;12.486;2023-02-26T03:33:55;-0.40;99.90
12841;DHT22;6487;48.626;12.486;2023-02-26T03:36:30;-0.50;99.90
12841;DHT22;6487;48.626;12.486;2023-02-26T03:39:04;-0.40;99.90
12841;DHT22;6487;48.626;12.486;2023-02-26T03:41:38;-0.40;99.90
12841;DHT22;6487;48.626;12.486;2023-02-26T03:44:15;-0.30;99.90
12841;DHT22;6487;48.626;12.486;2023-02-26T03:46:51;-0.10;99.90
12841;DHT22;6487;48.626;12.486;2023-02-26T03:49:26;-0.30;99.90
12841;DHT22;6487;48.626;12.486;2023-02-26T03:51:58;-0.40;99.90
12841;DHT22;6487;48.626;12.486;2023-02-26T03:54:30;-0.40;99.90
12841;DHT22;6487;48.626;12.486;2023-02-26T03:56:59;-0.50;99.90
12841;DHT22;6487;48.626;12.486;2023-02-26T03:59:28;-0.60;99.90
12841;DHT22;6487;48.626;12.486;2023-02-26T04:01:59;-0.60;99.90
12841;DHT22;6487;48.626;12.486;2023-02-26T04:04:33;-0.80;99.90
12841;DHT22;6487;48.626;12.486;2023-02-26T04:07:08;-0.60;99.90
12841;DHT22;6487;48.626;12.486;2023-02-26T04:09:39;-0.70;99.90
12841;DHT22;6487;48.626;12.486;2023-02-26T04:12:08;-0.80;99.90
12841;DHT22;6487;48.626;12.486;2023-02-26T04:14:37;-0.80;99.90
12841;DHT22;6487;48.626;12.486;2023-02-26T04:17:05;-0.80;99.90
12841;DHT22;6487;48.626;12.486;2023-02-26T04:19:35;-0.90;99.90
12841;DHT22;6487;48.626;12.486;2023-02-26T04:22:03;-0.90;99.90
12841;DHT22;6487;48.626;12.486;2023-02-26T04:24:31;-0.90;99.90
12841;DHT22;6487;48.626;12.486;2023-02-26T04:27:00;-0.90;99.90
12841;DHT22;6487;48.626;12.486;2023-02-26T04:29:28;-0.90;99.90
12841;DHT22;6487;48.626;12.486;2023-02-26T04:31:56;-0.80;99.90
12841;DHT22;6487;48.626;12.486;2023-02-26T04:34:25;-0.80;99.90
12841;DHT22;6487;48.626;12.486;2023-02-26T04:36:54;-0.70;99.90
12841;DHT22;6487;48.626;12.486;2023-02-26T04:39:23;-0.90;99.90
12841;DHT22;6487;48.626;12.486;2023-02-26T04:41:51;-0.90;99.90
12841;DHT22;6487;48.626;12.486;2023-02-26T04:44:19;-1.00;99.90
12841;DHT22;6487;48.626;12.486;2023-02-26T04:46:48;-0.90;99.90
12841;DHT22;6487;48.626;12.486;2023-02-26T04:49:16;-0.90;99.90
12841;DHT22;6487;48.626;12.486;2023-02-26T04:51:44;-1.00;99.90
12841;DHT22;6487;48.626;12.486;2023-02-26T04:54:14;-1.00;99.90
12841;DHT22;6487;48.626;12.486;2023-02-26T04:56:43;-1.10;99.90
12841;DHT22;6487;48.626;12.486;2023-02-26T04:59:11;-0.90;99.90
12841;DHT22;6487;48.626;12.486;2023-02-26T05:01:39;-0.90;99.90
12841;DHT22;6487;48.626;12.486;2023-02-26T05:04:08;-0.80;99.90
12841;DHT22;6487;48.626;12.486;2023-02-26T05:06:36;-0.80;99.90
12841;DHT22;6487;48.626;12.486;2023-02-26T05:09:05;-0.80;99.90
12841;DHT22;6487;48.626;12.486;2023-02-26T05:11:34;-0.90;99.90
12841;DHT22;6487;48.626;12.486;2023-02-26T05:14:02;-1.00;99.90
12841;DHT22;6487;48.626;12.486;2023-02-26T05:16:31;-0.90;99.90
12841;DHT22;6487;48.626;12.486;2023-02-26T05:18:59;-1.00;99.90
12841;DHT22;6487;48.626;12.486;2023-02-26T05:21:27;-1.10;99.90
12841;DHT22;6487;48.626;12.486;2023-02-26T05:23:56;-1.10;99.90
12841;DHT22;6487;48.626;12.486;2023-02-26T05:26:24;-1.10;99.90
12841;DHT22;6487;48.626;12.486;2023-02-26T05:28:54;-1.00;99.90
12841;DHT22;6487;48.626;12.486;2023-02-26T05:31:23;-1.20;99.90
12841;DHT22;6487;48.626;12.486;2023-02-26T05:33:52;-1.10;99.90
12841;DHT22;6487;48.626;12.486;2023-02-26T05:36:20;-1.10;99.90
12841;DHT22;6487;48.626;12.486;2023-02-26T05:38:49;-1.10;99.90
12841;DHT22;6487;48.626;12.486;2023-02-26T05:41:18;-1.10;99.90
12841;DHT22;6487;48.626;12.486;2023-02-26T05:43:47;-1.10;99.90
12841;DHT22;6487;48.626;12.486;2023-02-26T05:46:17;-1.10;99.90
12841;DHT22;6487;48.626;12.486;2023-02-26T05:48:45;-0.90;99.90
12841;DHT22;6487;48.626;12.486;2023-02-26T05:51:13;-0.90;99.90
12841;DHT22;6487;48.626;12.486;2023-02-26T05:53:42;-1.10;99.90
12841;DHT22;6487;48.626;12.486;2023-02-26T05:56:10;-1.00;99.90
12841;DHT22;6487;48.626;12.486;2023-02-26T05:58:38;-1.00;99.90
12841;DHT22;6487;48.626;12.486;2023-02-26T06:01:07;-0.80;99.90
12841;DHT22;6487;48.626;12.486;2023-02-26T06:03:37;-0.80;99.90
12841;DHT22;6487;48.626;12.486;2023-02-26T06:06:09;-0.80;99.90
12841;DHT22;6487;48.626;12.486;2023-02-26T06:08:38;-0.70;99.90
12841;DHT22;6487;48.626;12.486;2023-02-26T06:11:07;-0.60;99.90
12841;DHT22;6487;48.626;12.486;2023-02-26T06:13:35;-0.80;99.90
12841;DHT22;6487;48.626;12.486;2023-02-26T06:16:04;-0.80;99.90
12841;DHT22;6487;48.626;12.486;2023-02-26T06:18:32;-0.70;99.90
12841;DHT22;6487;48.626;12.486;2023-02-26T06:21:02;-0.80;99.90
12841;DHT22;6487;48.626;12.486;2023-02-26T06:23:31;-0.70;99.90
12841;DHT22;6487;48.626;12.486;2023-02-26T06:25:59;-0.60;99.90
12841;DHT22;6487;48.626;12.486;2023-02-26T06:28:27;-0.60;99.90
12841;DHT22;6487;48.626;12.486;2023-02-26T06:30:56;-0.70;99.90
12841;DHT22;6487;48.626;12.486;2023-02-26T06:33:24;-0.70;99.90
12841;DHT22;6487;48.626;12.486;2023-02-26T06:35:53;-0.60;99.90
12841;DHT22;6487;48.626;12.486;2023-02-26T06:38:23;-0.60;99.90
12841;DHT22;6487;48.626;12.486;2023-02-26T06:40:51;-0.70;99.90
12841;DHT22;6487;48.626;12.486;2023-02-26T06:43:19;-0.60;99.90
12841;DHT22;6487;48.626;12.486;2023-02-26T06:45:47;-0.60;99.90
12841;DHT22;6487;48.626;12.486;2023-02-26T06:48:16;-0.60;99.90
12841;DHT22;6487;48.626;12.486;2023-02-26T06:50:44;-0.50;99.90
12841;DHT22;6487;48.626;12.486;2023-02-26T06:53:12;-0.40;99.90
12841;DHT22;6487;48.626;12.486;2023-02-26T06:55:44;-0.50;99.90
12841;DHT22;6487;48.626;12.486;2023-02-26T06:58:14;-0.30;99.90
12841;DHT22;6487;48.626;12.486;2023-02-26T07:00:42;-0.40;99.90
12841;DHT22;6487;48.626;12.486;2023-02-26T07:03:12;-0.40;99.90
12841;DHT22;6487;48.626;12.486;2023-02-26T07:05:43;-0.30;99.90
12841;DHT22;6487;48.626;12.486;2023-02-26T07:08:12;-0.20;99.90
12841;DHT22;6487;48.626;12.486;2023-02-26T07:10:41;-0.10;99.90
12841;DHT22;6487;48.626;12.486;2023-02-26T07:13:13;-0.10;99.90
12841;DHT22;6487;48.626;12.486;2023-02-26T07:15:41;0.00;99.90
12841;DHT22;6487;48.626;12.486;2023-02-26T07:18:12;0.00;99.90
12841;DHT22;6487;48.626;12.486;2023-02-26T07:20:41;0.20;99.90
12841;DHT22;6487;48.626;12.486;2023-02-26T07:23:10;0.30;99.90
12841;DHT22;6487;48.626;12.486;2023-02-26T07:25:39;0.40;99.90
12841;DHT22;6487;48.626;12.486;2023-02-26T07:28:07;0.50;99.90
12841;DHT22;6487;48.626;12.486;2023-02-26T07:30:37;0.70;99.90
12841;DHT22;6487;48.626;12.486;2023-02-26T07:33:08;0.80;99.90
12841;DHT22;6487;48.626;12.486;2023-02-26T07:35:39;1.00;99.90
12841;DHT22;6487;48.626;12.486;2023-02-26T07:38:07;1.00;99.90
12841;DHT22;6487;48.626;12.486;2023-02-26T07:40:36;1.00;99.90
12841;DHT22;6487;48.626;12.486;2023-02-26T07:43:04;1.00;99.90
12841;DHT22;6487;48.626;12.486;2023-02-26T07:45:32;1.10;99.90
12841;DHT22;6487;48.626;12.486;2023-02-26T07:48:02;1.20;99.90
12841;DHT22;6487;48.626;12.486;2023-02-26T07:50:30;1.20;99.90
12841;DHT22;6487;48.626;12.486;2023-02-26T07:52:59;1.30;99.90
12841;DHT22;6487;48.626;12.486;2023-02-26T07:55:27;1.20;99.70
12841;DHT22;6487;48.626;12.486;2023-02-26T07:57:56;1.50;99.90
12841;DHT22;6487;48.626;12.486;2023-02-26T08:00:24;1.70;99.90
12841;DHT22;6487;48.626;12.486;2023-02-26T08:02:52;1.60;99.90
12841;DHT22;6487;48.626;12.486;2023-02-26T08:05:22;1.70;99.90
12841;DHT22;6487;48.626;12.486;2023-02-26T08:07:50;1.80;99.90
12841;DHT22;6487;48.626;12.486;2023-02-26T08:10:19;1.90;99.80
12841;DHT22;6487;48.626;12.486;2023-02-26T08:12:47;1.80;99.90
12841;DHT22;6487;48.626;12.486;2023-02-26T08:15:15;1.70;99.80
12841;DHT22;6487;48.626;12.486;2023-02-26T08:17:44;1.70;99.60
12841;DHT22;6487;48.626;12.486;2023-02-26T08:20:12;1.50;99.90
12841;DHT22;6487;48.626;12.486;2023-02-26T08:22:43;1.40;99.90
12841;DHT22;6487;48.626;12.486;2023-02-26T08:25:11;1.30;99.90
12841;DHT22;6487;48.626;12.486;2023-02-26T08:27:40;1.30;99.90
12841;DHT22;6487;48.626;12.486;2023-02-26T08:30:09;1.40;99.90
12841;DHT22;6487;48.626;12.486;2023-02-26T08:32:39;1.30;99.90
12841;DHT22;6487;48.626;12.486;2023-02-26T08:35:08;1.10;99.90
12841;DHT22;6487;48.626;12.486;2023-02-26T08:37:37;1.10;99.90
12841;DHT22;6487;48.626;12.486;2023-02-26T08:40:09;1.10;99.90
12841;DHT22;6487;48.626;12.486;2023-02-26T08:42:40;1.00;99.90
12841;DHT22;6487;48.626;12.486;2023-02-26T08:45:09;1.10;99.90
12841;DHT22;6487;48.626;12.486;2023-02-26T08:47:38;1.20;99.90
12841;DHT22;6487;48.626;12.486;2023-02-26T08:50:22;1.50;99.90
12841;DHT22;6487;48.626;12.486;2023-02-26T08:52:50;1.90;99.90
12841;DHT22;6487;48.626;12.486;2023-02-26T08:55:21;2.20;99.90
12841;DHT22;6487;48.626;12.486;2023-02-26T08:57:49;2.40;99.90
12841;DHT22;6487;48.626;12.486;2023-02-26T09:00:18;2.50;99.90
12841;DHT22;6487;48.626;12.486;2023-02-26T09:02:47;2.90;99.90
12841;DHT22;6487;48.626;12.486;2023-02-26T09:05:16;3.20;99.90
12841;DHT22;6487;48.626;12.486;2023-02-26T09:07:45;3.30;99.40
12841;DHT22;6487;48.626;12.486;2023-02-26T09:10:13;3.10;99.00
12841;DHT22;6487;48.626;12.486;2023-02-26T09:12:44;3.00;98.20
12841;DHT22;6487;48.626;12.486;2023-02-26T09:15:12;2.90;98.90
12841;DHT22;6487;48.626;12.486;2023-02-26T09:17:41;2.70;98.50
12841;DHT22;6487;48.626;12.486;2023-02-26T09:20:10;2.50;98.50
12841;DHT22;6487;48.626;12.486;2023-02-26T09:22:39;2.50;99.00
12841;DHT22;6487;48.626;12.486;2023-02-26T09:25:09;2.70;99.20
12841;DHT22;6487;48.626;12.486;2023-02-26T09:27:37;2.70;98.70
12841;DHT22;6487;48.626;12.486;2023-02-26T09:30:09;2.70;98.30
12841;DHT22;6487;48.626;12.486;2023-02-26T09:32:38;2.80;99.30
12841;DHT22;6487;48.626;12.486;2023-02-26T09:35:07;3.30;99.30
12841;DHT22;6487;48.626;12.486;2023-02-26T09:37:35;3.70;99.20
12841;DHT22;6487;48.626;12.486;2023-02-26T09:40:05;4.00;98.40
12841;DHT22;6487;48.626;12.486;2023-02-26T09:42:49;4.20;98.10
12841;DHT22;6487;48.626;12.486;2023-02-26T09:45:29;4.10;98.00
12841;DHT22;6487;48.626;12.486;2023-02-26T09:48:01;4.50;97.50
12841;DHT22;6487;48.626;12.486;2023-02-26T09:50:38;4.40;96.50
12841;DHT22;6487;48.626;12.486;2023-02-26T09:53:13;4.10;96.50
12841;DHT22;6487;48.626;12.486;2023-02-26T09:55:46;3.90;96.60
12841;DHT22;6487;48.626;12.486;2023-02-26T09:58:21;3.60;96.90
12841;DHT22;6487;48.626;12.486;2023-02-26T10:00:59;3.90;97.10
12841;DHT22;6487;48.626;12.486;2023-02-26T10:03:37;4.10;96.40
12841;DHT22;6487;48.626;12.486;2023-02-26T10:06:20;4.20;96.30
12841;DHT22;6487;48.626;12.486;2023-02-26T10:09:02;4.50;97.10
12841;DHT22;6487;48.626;12.486;2023-02-26T10:11:45;4.60;96.20
12841;DHT22;6487;48.626;12.486;2023-02-26T10:14:18;4.70;96.00
12841;DHT22;6487;48.626;12.486;2023-02-26T10:16:55;4.50;95.70
12841;DHT22;6487;48.626;12.486;2023-02-26T10:19:29;4.80;96.00
12841;DHT22;6487;48.626;12.486;2023-02-26T10:22:14;4.90;94.80
12841;DHT22;6487;48.626;12.486;2023-02-26T10:24:48;5.10;95.30
12841;DHT22;6487;48.626;12.486;2023-02-26T10:27:25;5.40;95.80
12841;DHT22;6487;48.626;12.486;2023-02-26T10:30:06;5.70;95.50
12841;DHT22;6487;48.626;12.486;2023-02-26T10:32:44;5.70;95.70
12841;DHT22;6487;48.626;12.486;2023-02-26T10:35:18;5.80;94.60
12841;DHT22;6487;48.626;12.486;2023-02-26T10:37:55;5.70;94.70
12841;DHT22;6487;48.626;12.486;2023-02-26T10:40:29;5.80;94.80
12841;DHT22;6487;48.626;12.486;2023-02-26T10:43:12;6.20;94.10
12841;DHT22;6487;48.626;12.486;2023-02-26T10:45:55;6.40;92.80
12841;DHT22;6487;48.626;12.486;2023-02-26T10:48:49;6.60;94.10
12841;DHT22;6487;48.626;12.486;2023-02-26T10:51:24;6.40;92.30
12841;DHT22;6487;48.626;12.486;2023-02-26T10:54:03;6.40;91.30
12841;DHT22;6487;48.626;12.486;2023-02-26T10:56:39;6.20;91.90
12841;DHT22;6487;48.626;12.486;2023-02-26T10:59:07;6.60;92.60
12841;DHT22;6487;48.626;12.486;2023-02-26T11:01:36;6.60;91.80
12841;DHT22;6487;48.626;12.486;2023-02-26T11:04:07;6.50;91.80
12841;DHT22;6487;48.626;12.486;2023-02-26T11:06:43;6.20;92.10
12841;DHT22;6487;48.626;12.486;2023-02-26T11:09:22;5.90;91.90
12841;DHT22;6487;48.626;12.486;2023-02-26T11:11:55;5.80;91.50
12841;DHT22;6487;48.626;12.486;2023-02-26T11:14:24;5.70;91.50
12841;DHT22;6487;48.626;12.486;2023-02-26T11:16:58;5.30;91.60
12841;DHT22;6487;48.626;12.486;2023-02-26T11:19:32;5.40;92.00
12841;DHT22;6487;48.626;12.486;2023-02-26T11:22:04;5.10;92.70
12841;DHT22;6487;48.626;12.486;2023-02-26T11:24:36;5.20;93.40
12841;DHT22;6487;48.626;12.486;2023-02-26T11:27:11;5.30;93.60
12841;DHT22;6487;48.626;12.486;2023-02-26T11:29:45;5.70;92.60
12841;DHT22;6487;48.626;12.486;2023-02-26T11:32:17;5.50;91.60
12841;DHT22;6487;48.626;12.486;2023-02-26T11:34:50;5.30;94.70
12841;DHT22;6487;48.626;12.486;2023-02-26T11:37:20;5.20;95.10
12841;DHT22;6487;48.626;12.486;2023-02-26T11:39:54;4.90;95.50
12841;DHT22;6487;48.626;12.486;2023-02-26T11:42:25;4.70;95.50
12841;DHT22;6487;48.626;12.486;2023-02-26T11:44:54;4.80;94.70
12841;DHT22;6487;48.626;12.486;2023-02-26T11:47:27;5.00;95.70
12841;DHT22;6487;48.626;12.486;2023-02-26T11:50:03;5.20;95.50
12841;DHT22;6487;48.626;12.486;2023-02-26T11:52:41;5.10;95.80
12841;DHT22;6487;48.626;12.486;2023-02-26T11:55:18;5.20;94.40
12841;DHT22;6487;48.626;12.486;2023-02-26T11:57:50;4.70;95.00
12841;DHT22;6487;48.626;12.486;2023-02-26T12:00:28;4.80;94.90
12841;DHT22;6487;48.626;12.486;2023-02-26T12:03:00;4.70;95.40
12841;DHT22;6487;48.626;12.486;2023-02-26T12:05:35;4.70;94.90
12841;DHT22;6487;48.626;12.486;2023-02-26T12:08:14;4.80;95.00
12841;DHT22;6487;48.626;12.486;2023-02-26T12:10:52;5.00;94.40
12841;DHT22;6487;48.626;12.486;2023-02-26T12:13:34;4.90;94.50
12841;DHT22;6487;48.626;12.486;2023-02-26T12:16:09;4.90;92.80
12841;DHT22;6487;48.626;12.486;2023-02-26T12:18:53;4.60;92.90
12841;DHT22;6487;48.626;12.486;2023-02-26T12:21:46;4.50;92.80
12841;DHT22;6487;48.626;12.486;2023-02-26T12:24:39;4.60;92.00
12841;DHT22;6487;48.626;12.486;2023-02-26T12:27:23;4.60;91.30
12841;DHT22;6487;48.626;12.486;2023-02-26T12:30:09;4.20;91.00
12841;DHT22;6487;48.626;12.486;2023-02-26T12:33:00;3.90;91.70
12841;DHT22;6487;48.626;12.486;2023-02-26T12:35:41;4.10;91.70
12841;DHT22;6487;48.626;12.486;2023-02-26T12:38:20;3.90;91.10
12841;DHT22;6487;48.626;12.486;2023-02-26T12:41:17;4.00;90.10
12841;DHT22;6487;48.626;12.486;2023-02-26T12:43:56;3.90;88.50
12841;DHT22;6487;48.626;12.486;2023-02-26T12:46:39;4.20;90.60
12841;DHT22;6487;48.626;12.486;2023-02-26T12:49:31;4.40;90.70
12841;DHT22;6487;48.626;12.486;2023-02-26T12:55:18;4.10;88.50
12841;DHT22;6487;48.626;12.486;2023-02-26T12:58:10;4.00;87.20
12841;DHT22;6487;48.626;12.486;2023-02-26T13:00:58;4.30;90.30
12841;DHT22;6487;48.626;12.486;2023-02-26T13:03:45;4.40;87.50
12841;DHT22;6487;48.626;12.486;2023-02-26T13:07:07;4.20;85.60
12841;DHT22;6487;48.626;12.486;2023-02-26T13:10:00;4.20;84.00
12841;DHT22;6487;48.626;12.486;2023-02-26T13:12:41;4.30;84.10
12841;DHT22;6487;48.626;12.486;2023-02-26T13:15:34;4.40;83.60
12841;DHT22;6487;48.626;12.486;2023-02-26T13:18:13;4.90;85.30
12841;DHT22;6487;48.626;12.486;2023-02-26T13:20:50;5.20;89.40
12841;DHT22;6487;48.626;12.486;2023-02-26T13:23:23;5.30;89.80
12841;DHT22;6487;48.626;12.486;2023-02-26T13:25:59;4.80;89.70
12841;DHT22;6487;48.626;12.486;2023-02-26T13:28:37;4.80;90.00
12841;DHT22;6487;48.626;12.486;2023-02-26T13:31:10;4.70;89.70
12841;DHT22;6487;48.626;12.486;2023-02-26T13:33:40;4.50;89.50
12841;DHT22;6487;48.626;12.486;2023-02-26T13:36:11;4.40;90.20
12841;DHT22;6487;48.626;12.486;2023-02-26T13:38:54;4.40;91.30
12841;DHT22;6487;48.626;12.486;2023-02-26T13:41:39;4.40;90.20
12841;DHT22;6487;48.626;12.486;2023-02-26T13:44:25;4.30;91.10
12841;DHT22;6487;48.626;12.486;2023-02-26T13:47:23;4.30;91.00
12841;DHT22;6487;48.626;12.486;2023-02-26T13:50:11;4.50;91.20
12841;DHT22;6487;48.626;12.486;2023-02-26T13:52:51;4.30;88.00
12841;DHT22;6487;48.626;12.486;2023-02-26T13:55:40;4.20;88.60
12841;DHT22;6487;48.626;12.486;2023-02-26T13:58:29;4.30;89.70
12841;DHT22;6487;48.626;12.486;2023-02-26T14:01:09;4.50;88.50
12841;DHT22;6487;48.626;12.486;2023-02-26T14:03:46;4.60;87.20
12841;DHT22;6487;48.626;12.486;2023-02-26T14:06:38;4.40;85.50
12841;DHT22;6487;48.626;12.486;2023-02-26T14:09:42;4.50;84.40
12841;DHT22;6487;48.626;12.486;2023-02-26T14:12:24;4.60;84.00
12841;DHT22;6487;48.626;12.486;2023-02-26T14:15:30;4.50;85.00
12841;DHT22;6487;48.626;12.486;2023-02-26T14:18:30;4.30;84.70
12841;DHT22;6487;48.626;12.486;2023-02-26T14:21:37;4.20;84.70
12841;DHT22;6487;48.626;12.486;2023-02-26T14:24:14;4.40;85.20
12841;DHT22;6487;48.626;12.486;2023-02-26T14:26:46;4.60;86.70
12841;DHT22;6487;48.626;12.486;2023-02-26T14:29:20;4.50;86.70
12841;DHT22;6487;48.626;12.486;2023-02-26T14:32:03;4.50;87.80
12841;DHT22;6487;48.626;12.486;2023-02-26T14:34:47;4.30;86.40
12841;DHT22;6487;48.626;12.486;2023-02-26T14:37:19;4.20;85.50
12841;DHT22;6487;48.626;12.486;2023-02-26T14:39:54;4.20;87.10
12841;DHT22;6487;48.626;12.486;2023-02-26T14:42:32;4.20;88.40
12841;DHT22;6487;48.626;12.486;2023-02-26T14:45:17;4.00;86.70
12841;DHT22;6487;48.626;12.486;2023-02-26T14:47:54;4.10;85.30
12841;DHT22;6487;48.626;12.486;2023-02-26T14:50:29;4.00;85.40
12841;DHT22;6487;48.626;12.486;2023-02-26T14:53:25;4.10;86.90
12841;DHT22;6487;48.626;12.486;2023-02-26T14:56:17;4.10;86.40
12841;DHT22;6487;48.626;12.486;2023-02-26T14:58:58;4.00;85.80
12841;DHT22;6487;48.626;12.486;2023-02-26T15:01:44;3.80;86.50
12841;DHT22;6487;48.626;12.486;2023-02-26T15:04:43;3.70;87.40
12841;DHT22;6487;48.626;12.486;2023-02-26T15:07:39;3.80;86.20
12841;DHT22;6487;48.626;12.486;2023-02-26T15:10:25;3.70;85.70
12841;DHT22;6487;48.626;12.486;2023-02-26T15:13:19;3.70;86.90
12841;DHT22;6487;48.626;12.486;2023-02-26T15:15:55;3.50;84.80
12841;DHT22;6487;48.626;12.486;2023-02-26T15:18:49;3.40;85.70
12841;DHT22;6487;48.626;12.486;2023-02-26T15:21:30;3.40;87.40
12841;DHT22;6487;48.626;12.486;2023-02-26T15:24:10;3.40;90.00
12841;DHT22;6487;48.626;12.486;2023-02-26T15:26:45;3.10;91.70
12841;DHT22;6487;48.626;12.486;2023-02-26T15:29:15;3.10;92.20
12841;DHT22;6487;48.626;12.486;2023-02-26T15:31:49;3.00;92.50
12841;DHT22;6487;48.626;12.486;2023-02-26T15:34:20;3.10;92.80
12841;DHT22;6487;48.626;12.486;2023-02-26T15:36:50;3.10;93.20
12841;DHT22;6487;48.626;12.486;2023-02-26T15:39:22;3.00;93.90
12841;DHT22;6487;48.626;12.486;2023-02-26T15:41:52;2.90;94.60
12841;DHT22;6487;48.626;12.486;2023-02-26T15:44:24;2.90;94.50
12841;DHT22;6487;48.626;12.486;2023-02-26T15:46:56;3.00;94.40
12841;DHT22;6487;48.626;12.486;2023-02-26T15:49:28;3.00;94.50
12841;DHT22;6487;48.626;12.486;2023-02-26T15:52:02;3.00;94.50
12841;DHT22;6487;48.626;12.486;2023-02-26T15:54:37;3.00;94.40
12841;DHT22;6487;48.626;12.486;2023-02-26T15:57:09;2.90;94.80
12841;DHT22;6487;48.626;12.486;2023-02-26T15:59:42;3.10;94.40
12841;DHT22;6487;48.626;12.486;2023-02-26T16:02:12;3.00;94.20
12841;DHT22;6487;48.626;12.486;2023-02-26T16:04:41;3.10;94.40
12841;DHT22;6487;48.626;12.486;2023-02-26T16:07:11;3.20;94.00
12841;DHT22;6487;48.626;12.486;2023-02-26T16:09:44;2.90;94.20
12841;DHT22;6487;48.626;12.486;2023-02-26T16:12:17;3.00;94.90
12841;DHT22;6487;48.626;12.486;2023-02-26T16:14:49;3.10;94.60
12841;DHT22;6487;48.626;12.486;2023-02-26T16:17:25;3.00;94.60
12841;DHT22;6487;48.626;12.486;2023-02-26T16:19:56;3.10;94.40
12841;DHT22;6487;48.626;12.486;2023-02-26T16:22:29;2.90;94.50
12841;DHT22;6487;48.626;12.486;2023-02-26T16:25:04;3.00;94.30
12841;DHT22;6487;48.626;12.486;2023-02-26T16:27:35;2.90;94.20
12841;DHT22;6487;48.626;12.486;2023-02-26T16:30:04;2.70;94.20
12841;DHT22;6487;48.626;12.486;2023-02-26T16:32:33;2.70;94.50
12841;DHT22;6487;48.626;12.486;2023-02-26T16:35:09;2.70;94.60